Time;durP1;ratioP1;P1;durP2;ratioP2;P2;SDS_P1;SDS_P2;PMS_P1;PMS_P2;Temp;Humidity;BMP_temperature;BMP_pressure;BME280_temperature;BME280_humidity;BME280_pressure;Samples;Min_cycle;Max_cycle;Signal;HPM_P1;HPM_P2
2023/05/06 00:00:03;;;;;;;0.40;0.40;;;;;;;12.98;100.00;96964.41;29395;229;63009;-59
2023/05/06 00:00:34;;;;;;;0.40;0.40;;;;;;;12.99;100.00;96966.03;29395;197;63005;-59
2023/05/06 00:01:06;;;;;;;0.40;0.40;;;;;;;12.96;100.00;96962.00;29395;196;63009;-60
2023/05/06 00:01:38;;;;;;;0.45;0.45;;;;;;;12.96;100.00;96966.66;29394;316;64009;-59
2023/05/06 00:02:10;;;;;;;0.50;0.50;;;;;;;12.95;100.00;96954.94;29394;208;64013;-60
2023/05/06 00:02:41;;;;;;;0.43;0.43;;;;;;;12.95;100.00;96965.03;29395;208;63004;-58
2023/05/06 00:03:12;;;;;;;0.40;0.40;;;;;;;12.94;100.00;96963.41;29395;209;63009;-60
2023/05/06 00:03:43;;;;;;;0.40;0.40;;;;;;;12.95;100.00;96965.03;29395;227;63015;-59
2023/05/06 00:04:14;;;;;;;0.40;0.40;;;;;;;12.94;100.00;96966.13;29395;240;63008;-59
2023/05/06 00:04:46;;;;;;;0.40;0.40;;;;;;;12.94;100.00;96958.78;29394;197;64005;-59
2023/05/06 00:05:18;;;;;;;0.40;0.40;;;;;;;12.95;100.00;96960.37;29395;268;63009;-60
2023/05/06 00:05:49;;;;;;;0.40;0.40;;;;;;;12.97;100.00;96957.34;29395;199;63005;-59
2023/05/06 00:06:21;;;;;;;0.40;0.40;;;;;;;12.97;100.00;96963.62;29395;248;63009;-59
2023/05/06 00:06:53;;;;;;;0.40;0.40;;;;;;;12.96;100.00;96962.00;29395;208;63007;-60
2023/05/06 00:07:25;;;;;;;0.40;0.40;;;;;;;12.95;100.00;96962.31;29394;227;64013;-59
2023/05/06 00:07:59;;;;;;;0.40;0.40;;;;;;;12.95;100.00;96965.03;29395;237;63005;-60
2023/05/06 00:08:31;;;;;;;0.40;0.40;;;;;;;12.93;100.00;96964.53;29395;199;63009;-59
2023/05/06 00:09:03;;;;;;;0.50;0.50;;;;;;;12.93;100.00;96961.81;29395;199;63004;-59
2023/05/06 00:09:34;;;;;;;0.40;0.40;;;;;;;12.93;100.00;96961.81;29395;220;63009;-59
2023/05/06 00:10:06;;;;;;;0.30;0.30;;;;;;;12.92;100.00;96962.91;29395;280;63004;-59
2023/05/06 00:10:37;;;;;;;0.40;0.40;;;;;;;12.92;100.00;96960.19;29395;203;63009;-58
2023/05/06 00:11:08;;;;;;;0.40;0.40;;;;;;;12.91;100.00;96964.03;29395;314;63004;-60
2023/05/06 00:11:40;;;;;;;0.40;0.40;;;;;;;12.91;100.00;96964.03;29395;215;63008;-59
2023/05/06 00:12:11;;;;;;;0.40;0.40;;;;;;;12.91;100.00;96958.56;29395;333;63005;-59
2023/05/06 00:12:43;;;;;;;0.40;0.40;;;;;;;12.91;100.00;96959.37;29394;287;64014;-59
2023/05/06 00:13:14;;;;;;;0.40;0.40;;;;;;;12.91;100.00;96955.84;29395;214;63005;-60
2023/05/06 00:13:46;;;;;;;0.40;0.40;;;;;;;12.92;100.00;96960.19;29395;237;63009;-60
2023/05/06 00:14:17;;;;;;;0.40;0.40;;;;;;;12.91;100.00;96967.56;29394;225;64009;-60
2023/05/06 00:14:48;;;;;;;0.40;0.40;;;;;;;12.92;100.00;96968.34;29395;264;63009;-60
2023/05/06 00:15:20;;;;;;;0.40;0.40;;;;;;;12.90;100.00;96968.66;29395;247;63005;-60
2023/05/06 00:15:51;;;;;;;0.40;0.40;;;;;;;12.91;100.00;96964.03;29395;214;63009;-60
2023/05/06 00:16:22;;;;;;;0.40;0.40;;;;;;;12.89;100.00;96958.88;29395;220;63004;-60
2023/05/06 00:16:53;;;;;;;0.40;0.40;;;;;;;12.90;100.00;96954.25;29395;266;63009;-59
2023/05/06 00:17:25;;;;;;;0.40;0.40;;;;;;;12.90;100.00;96962.41;29395;221;63004;-59
2023/05/06 00:17:56;;;;;;;0.40;0.40;;;;;;;12.90;100.00;96962.41;29395;232;63009;-58
2023/05/06 00:18:27;;;;;;;0.40;0.40;;;;;;;12.91;100.00;96961.31;29395;215;63004;-59
2023/05/06 00:18:59;;;;;;;0.40;0.40;;;;;;;12.91;100.00;96955.84;29395;275;63004;-56
2023/05/06 00:19:31;;;;;;;0.40;0.40;;;;;;;12.90;100.00;96955.03;29394;268;64008;-59
2023/05/06 00:20:03;;;;;;;0.40;0.40;;;;;;;12.92;100.00;96960.19;29395;205;63025;-60
2023/05/06 00:20:35;;;;;;;0.40;0.40;;;;;;;12.91;100.00;96947.69;29395;202;63005;-59
2023/05/06 00:21:06;;;;;;;0.40;0.40;;;;;;;12.92;100.00;96954.75;29395;205;63009;-58
2023/05/06 00:21:37;;;;;;;0.40;0.40;;;;;;;12.90;100.00;96956.97;29395;241;63000;-59
2023/05/06 00:22:09;;;;;;;0.40;0.40;;;;;;;12.91;100.00;96953.94;29395;205;63009;-59
2023/05/06 00:22:40;;;;;;;0.40;0.40;;;;;;;12.92;100.00;96949.28;29395;211;63005;-58
2023/05/06 00:24:20;;;;;;;0.43;0.43;;;;;;;12.92;100.00;96949.28;88173;213;64004;-59
2023/05/06 00:24:51;;;;;;;0.40;0.40;;;;;;;12.93;100.00;96948.19;29394;216;64009;-58
2023/05/06 00:25:23;;;;;;;0.32;0.32;;;;;;;12.93;100.00;96950.91;29395;247;63005;-59
2023/05/06 00:25:54;;;;;;;0.40;0.40;;;;;;;12.91;100.00;96943.03;29395;231;63005;-60
2023/05/06 00:26:25;;;;;;;0.40;0.40;;;;;;;12.90;100.00;96940.62;29395;235;63005;-60
2023/05/06 00:26:57;;;;;;;0.50;0.50;;;;;;;12.87;100.00;96941.22;29395;210;63009;-59
2023/05/06 00:27:28;;;;;;;0.40;0.40;;;;;;;12.86;100.00;96939.63;29394;202;64009;-55
2023/05/06 00:28:00;;;;;;;0.50;0.50;;;;;;;12.86;100.00;96947.78;29395;215;63009;-59
2023/05/06 00:28:32;;;;;;;0.40;0.40;;;;;;;12.85;100.00;96943.47;29395;220;63004;-56
2023/05/06 00:29:03;;;;;;;0.40;0.40;;;;;;;12.85;100.00;96943.47;29395;209;63017;-60
2023/05/06 00:29:34;;;;;;;0.40;0.40;;;;;;;12.85;100.00;96943.47;29395;209;63004;-58
2023/05/06 00:30:07;;;;;;;0.40;0.40;;;;;;;12.84;100.00;96947.28;29395;280;63009;-59
2023/05/06 00:30:38;;;;;;;0.40;0.40;;;;;;;12.83;100.00;96941.03;29395;212;63004;-59
2023/05/06 00:31:09;;;;;;;0.40;0.40;;;;;;;12.84;100.00;96947.28;29395;269;63008;-59
2023/05/06 00:31:41;;;;;;;0.40;0.40;;;;;;;12.84;100.00;96944.56;29395;248;63005;-59
2023/05/06 00:32:12;;;;;;;0.40;0.40;;;;;;;12.82;100.00;96952.25;29395;222;63009;-55
2023/05/06 00:32:43;;;;;;;0.40;0.40;;;;;;;12.81;100.00;96947.94;29394;218;64009;-60
2023/05/06 00:33:14;;;;;;;0.40;0.40;;;;;;;12.80;100.00;96947.13;29395;262;63009;-58
2023/05/06 00:33:46;;;;;;;0.40;0.40;;;;;;;12.78;100.00;96948.53;29395;227;63005;-55
2023/05/06 00:34:17;;;;;;;0.40;0.40;;;;;;;12.76;100.00;96957.00;29395;260;63009;-59
2023/05/06 00:34:48;;;;;;;0.40;0.40;;;;;;;12.71;100.00;96948.94;29395;227;63005;-60
2023/05/06 00:35:20;;;;;;;0.40;0.40;;;;;;;12.70;100.00;96952.78;29395;242;63009;-59
2023/05/06 00:35:52;;;;;;;0.55;0.55;;;;;;;12.68;100.00;96947.63;29395;252;63004;-58
2023/05/06 00:36:23;;;;;;;0.40;0.40;;;;;;;12.66;100.00;96955.31;29395;244;63009;-60
2023/05/06 00:36:54;;;;;;;0.40;0.40;;;;;;;12.61;100.00;96949.97;29395;250;63004;-59
2023/05/06 00:37:25;;;;;;;0.40;0.40;;;;;;;12.60;100.00;96947.53;29395;301;63009;-60
2023/05/06 00:38:05;;;;;;;0.40;0.40;;;;;;;12.57;100.00;96948.94;29394;217;64008;-60
2023/05/06 00:39:43;;;;;;;0.43;0.43;;;;;;;12.52;100.00;96949.06;88178;235;64005;-59
2023/05/06 00:40:14;;;;;;;0.40;0.40;;;;;;;12.51;100.00;96952.87;29394;229;64008;-59
2023/05/06 00:40:46;;;;;;;0.40;0.40;;;;;;;12.48;100.00;96950.75;29395;219;63005;-59
2023/05/06 00:41:17;;;;;;;0.40;0.40;;;;;;;12.44;100.00;96949.78;29395;278;63017;-59
2023/05/06 00:41:49;;;;;;;0.65;0.65;;;;;;;12.43;100.00;96952.81;29395;197;63005;-59
2023/05/06 00:42:23;;;;;;;0.40;0.40;;;;;;;12.41;100.00;96950.38;29395;229;63009;-60
2023/05/06 00:42:54;;;;;;;0.40;0.40;;;;;;;12.37;100.00;96949.38;29395;240;63005;-60
2023/05/06 00:43:26;;;;;;;0.40;0.40;;;;;;;12.34;100.00;96956.22;29394;203;64013;-58
2023/05/06 00:43:57;;;;;;;0.40;0.40;;;;;;;12.31;100.00;96956.03;29395;304;63005;-59
2023/05/06 00:44:30;;;;;;;0.40;0.40;;;;;;;12.30;100.00;96952.50;29395;255;63009;-59
2023/05/06 00:45:02;;;;;;;0.40;0.40;;;;;;;12.30;100.00;96955.22;29395;244;63009;-59
2023/05/06 00:45:34;;;;;;;0.40;0.40;;;;;;;12.28;100.00;96951.19;29395;206;63016;-59
2023/05/06 00:46:08;;;;;;;0.40;0.40;;;;;;;12.25;100.00;96952.59;29395;249;63004;-59
2023/05/06 00:46:41;;;;;;;0.40;0.40;;;;;;;12.24;100.00;96950.97;29395;218;63008;-59
2023/05/06 00:47:17;;;;;;;0.40;0.40;;;;;;;12.24;100.00;96955.62;29395;233;63004;-59
2023/05/06 00:47:48;;;;;;;0.40;0.40;;;;;;;12.23;100.00;96956.72;29395;237;63004;-59
2023/05/06 00:48:20;;;;;;;0.45;0.45;;;;;;;12.25;100.00;96951.78;29395;199;63005;-58
2023/05/06 00:48:52;;;;;;;0.40;0.40;;;;;;;12.23;100.00;96949.38;29394;219;64014;-60
2023/05/06 00:49:24;;;;;;;0.43;0.43;;;;;;;12.24;100.00;96961.06;29395;226;63005;-58
2023/05/06 00:49:56;;;;;;;0.40;0.40;;;;;;;12.24;100.00;96952.91;29395;216;63009;-60
2023/05/06 00:50:28;;;;;;;0.40;0.40;;;;;;;12.22;100.00;96953.19;29395;272;63005;-59
2023/05/06 00:51:00;;;;;;;0.50;0.50;;;;;;;12.22;100.00;96953.19;29395;265;63009;-59
2023/05/06 00:51:31;;;;;;;0.40;0.40;;;;;;;12.21;100.00;96948.06;29395;199;63005;-55
2023/05/06 00:52:03;;;;;;;0.60;0.60;;;;;;;12.22;100.00;96952.37;29395;340;63009;-60
2023/05/06 00:52:34;;;;;;;0.40;0.40;;;;;;;12.16;100.00;96940.78;29395;224;63004;-59
2023/05/06 00:53:08;;;;;;;0.40;0.40;;;;;;;12.23;100.00;96948.56;29395;241;63009;-60
2023/05/06 00:53:40;;;;;;;0.40;0.40;;;;;;;12.23;100.00;96954.00;29395;277;63004;-60
2023/05/06 00:54:12;;;;;;;0.40;0.40;;;;;;;12.24;100.00;96955.62;29394;202;64013;-59
2023/05/06 00:54:43;;;;;;;0.40;0.40;;;;;;;12.22;100.00;96947.75;29395;206;63004;-60
2023/05/06 00:55:15;;;;;;;0.40;0.40;;;;;;;12.22;100.00;96952.37;29395;216;63009;-59
2023/05/06 00:55:48;;;;;;;0.40;0.40;;;;;;;12.20;100.00;96954.59;29395;242;63005;-60
2023/05/06 00:56:20;;;;;;;0.50;0.50;;;;;;;12.18;100.00;96954.09;29395;202;63015;-59
2023/05/06 00:56:51;;;;;;;0.40;0.40;;;;;;;12.17;100.00;96955.19;29395;274;63005;-59
2023/05/06 00:57:23;;;;;;;0.40;0.40;;;;;;;12.16;100.00;96953.59;29395;205;63013;-59
2023/05/06 00:57:55;;;;;;;0.50;0.50;;;;;;;12.16;100.00;96948.16;29395;239;63005;-58
2023/05/06 00:58:27;;;;;;;0.50;0.50;;;;;;;12.16;100.00;96948.16;29395;272;63009;-59
2023/05/06 00:58:59;;;;;;;0.50;0.50;;;;;;;12.15;100.00;96951.97;29395;244;63005;-60
2023/05/06 00:59:31;;;;;;;0.40;0.40;;;;;;;12.14;100.00;96950.34;29394;222;64013;-59
2023/05/06 01:00:05;;;;;;;0.45;0.45;;;;;;;12.14;100.00;96944.91;29395;242;63004;-58
2023/05/06 01:00:37;;;;;;;0.40;0.40;;;;;;;12.15;100.00;96947.34;29395;377;63009;-60
2023/05/06 01:01:09;;;;;;;0.47;0.47;;;;;;;12.17;100.00;96949.75;29395;219;63004;-59
2023/05/06 01:01:41;;;;;;;0.40;0.40;;;;;;;12.17;100.00;96949.75;29395;202;63009;-55
2023/05/06 01:02:12;;;;;;;0.40;0.40;;;;;;;12.19;100.00;96953.00;29395;255;63004;-59
2023/05/06 01:02:45;;;;;;;0.40;0.40;;;;;;;12.19;100.00;96950.25;29395;202;63009;-59
2023/05/06 01:03:17;;;;;;;0.50;0.50;;;;;;;12.17;100.00;96945.13;29395;200;63005;-59
2023/05/06 01:03:48;;;;;;;0.40;0.40;;;;;;;12.18;100.00;96956.81;29394;213;64014;-60
2023/05/06 01:04:22;;;;;;;0.40;0.40;;;;;;;12.18;100.00;96956.81;29395;197;63005;-59
2023/05/06 01:04:54;;;;;;;0.40;0.40;;;;;;;12.17;100.00;96957.91;29395;214;63009;-60
2023/05/06 01:05:32;;;;;;;0.40;0.40;;;;;;;12.16;100.00;96957.12;29395;241;63005;-59
2023/05/06 01:06:20;;;;;;;0.40;0.40;;;;;;;12.15;100.00;96955.50;29395;210;63009;-55
2023/05/06 01:07:23;;;;;;;0.40;0.40;;;;;;;12.15;100.00;96950.06;29395;199;63004;-59
2023/05/06 01:08:11;;;;;;;0.40;0.40;;;;;;;12.10;100.00;96960.25;29395;198;63009;-59
2023/05/06 01:09:09;;;;;;;0.45;0.45;;;;;;;12.09;100.00;96954.00;29395;275;63004;-53
2023/05/06 01:10:02;;;;;;;0.55;0.55;;;;;;;12.10;100.00;96952.09;29394;258;64008;-59
2023/05/06 01:11:13;;;;;;;0.43;0.43;;;;;;;12.12;100.00;96947.97;29395;209;63009;-55
2023/05/06 01:12:08;;;;;;;0.40;0.40;;;;;;;12.16;100.00;96945.44;29395;216;63005;-59
2023/05/06 01:13:01;;;;;;;0.40;0.40;;;;;;;12.16;100.00;96943.50;29395;220;63017;-59
2023/05/06 01:14:10;;;;;;;0.50;0.50;;;;;;;12.18;100.00;96940.50;29395;242;63011;-60
2023/05/06 01:15:19;;;;;;;0.40;0.40;;;;;;;12.17;100.00;96944.31;29394;227;64013;-59
2023/05/06 01:15:54;;;;;;;0.40;0.40;;;;;;;12.17;100.00;96944.31;29395;289;63009;-59
2023/05/06 01:16:29;;;;;;;0.40;0.40;;;;;;;12.14;100.00;96942.19;29395;263;63004;-60
2023/05/06 01:17:05;;;;;;;0.50;0.50;;;;;;;12.12;100.00;96941.72;29395;229;63008;-60
2023/05/06 01:17:41;;;;;;;0.40;0.40;;;;;;;12.12;100.00;96942.53;29394;262;64008;-60
2023/05/06 01:18:20;;;;;;;0.40;0.40;;;;;;;12.11;100.00;96946.34;29395;259;63009;-59
2023/05/06 01:18:53;;;;;;;0.40;0.40;;;;;;;12.10;100.00;96938.50;29395;253;63005;-59
2023/05/06 01:19:58;;;;;;;0.50;0.50;;;;;;;12.11;100.00;96940.09;29395;203;63009;-59
2023/05/06 01:20:32;;;;;;;0.40;0.40;;;;;;;12.12;100.00;96939.00;29395;227;63005;-60
2023/05/06 01:21:05;;;;;;;0.40;0.40;;;;;;;12.13;100.00;96943.34;29395;202;63009;-58
2023/05/06 01:21:40;;;;;;;0.40;0.40;;;;;;;12.13;100.00;96944.13;29395;212;63015;-59
2023/05/06 01:22:12;;;;;;;0.50;0.50;;;;;;;12.15;100.00;96943.81;29395;207;63009;-58
2023/05/06 01:22:44;;;;;;;0.47;0.47;;;;;;;12.15;100.00;96941.91;29394;198;64009;-60
2023/05/06 01:23:17;;;;;;;0.40;0.40;;;;;;;12.16;100.00;96942.72;29395;233;63009;-60
2023/05/06 01:24:57;;;;;;;0.47;0.47;;;;;;;12.20;100.00;96939.09;87952;205;137000;-59
2023/05/06 01:25:29;;;;;;;0.40;0.40;;;;;;;12.22;100.00;96946.94;29394;214;64009;-60
2023/05/06 01:26:00;;;;;;;0.40;0.40;;;;;;;12.21;100.00;96950.78;29395;262;63004;-60
2023/05/06 01:26:31;;;;;;;0.40;0.40;;;;;;;12.22;100.00;96946.94;29395;197;63009;-59
2023/05/06 01:27:03;;;;;;;0.43;0.43;;;;;;;12.23;100.00;96948.56;29395;248;63004;-59
2023/05/06 01:27:34;;;;;;;0.40;0.40;;;;;;;12.23;100.00;96949.38;29394;202;64009;-60
2023/05/06 01:28:10;;;;;;;0.37;0.37;;;;;;;12.22;100.00;96946.94;29394;243;64009;-59
2023/05/06 01:28:41;;;;;;;0.40;0.40;;;;;;;12.19;100.00;96948.34;29395;215;63008;-59
2023/05/06 01:29:14;;;;;;;0.43;0.43;;;;;;;12.16;100.00;96950.88;29395;221;63004;-60
2023/05/06 01:29:47;;;;;;;0.40;0.40;;;;;;;12.15;100.00;96944.63;29395;215;63008;-60
2023/05/06 01:30:21;;;;;;;0.40;0.40;;;;;;;12.15;100.00;96951.97;29395;227;63005;-58
2023/05/06 01:31:02;;;;;;;0.95;0.95;;;;;;;12.14;100.00;96951.16;29395;208;63009;-58
2023/05/06 01:31:48;;;;;;;0.40;0.40;;;;;;;12.15;100.00;96946.53;29395;225;63005;-59
2023/05/06 01:32:57;;;;;;;0.40;0.40;;;;;;;12.16;100.00;96953.59;29395;250;63009;-59
2023/05/06 01:34:11;;;;;;;0.50;0.50;;;;;;;12.15;100.00;96946.53;29394;203;64009;-60
2023/05/06 01:34:54;;;;;;;0.50;0.50;;;;;;;12.14;100.00;96948.44;29395;239;63009;-59
2023/05/06 01:36:06;;;;;;;0.50;0.50;;;;;;;12.12;100.00;96952.59;29395;239;63004;-59
2023/05/06 01:37:11;;;;;;;0.50;0.50;;;;;;;12.07;100.00;96946.16;29417;243;63008;-59
2023/05/06 01:38:22;;;;;;;0.47;0.47;;;;;;;12.08;100.00;96945.03;29395;226;63005;-59
2023/05/06 01:39:17;;;;;;;0.47;0.47;;;;;;;12.10;100.00;96938.50;29394;198;64013;-60
2023/05/06 01:39:53;;;;;;;0.50;0.50;;;;;;;12.11;100.00;96940.09;29395;310;63005;-60
2023/05/06 01:40:29;;;;;;;0.43;0.43;;;;;;;12.11;100.00;96942.84;29394;256;64013;-60
2023/05/06 01:41:01;;;;;;;0.40;0.40;;;;;;;12.10;100.00;96949.38;29395;220;63015;-59
2023/05/06 01:41:34;;;;;;;0.40;0.40;;;;;;;12.08;100.00;96942.31;29395;220;63026;-60
2023/05/06 01:42:07;;;;;;;0.40;0.40;;;;;;;12.05;100.00;96942.13;29395;247;63004;-61
2023/05/06 01:42:39;;;;;;;0.98;0.98;;;;;;;12.02;100.00;96943.53;29395;221;63024;-59
2023/05/06 01:43:13;;;;;;;0.40;0.40;;;;;;;12.00;100.00;96945.72;29395;197;63004;-58
2023/05/06 01:43:47;;;;;;;0.43;0.43;;;;;;;12.00;100.00;96945.72;29395;327;63008;-59
2023/05/06 01:44:22;;;;;;;0.50;0.50;;;;;;;12.00;100.00;96940.28;29395;357;63017;-59
2023/05/06 01:44:56;;;;;;;0.40;0.40;;;;;;;12.01;100.00;96941.91;29395;313;63009;-60
2023/05/06 01:45:30;;;;;;;0.40;0.40;;;;;;;12.02;100.00;96948.97;29394;241;64009;-59
2023/05/06 01:46:02;;;;;;;0.40;0.40;;;;;;;12.03;100.00;96947.84;29395;252;63009;-59
2023/05/06 01:46:35;;;;;;;0.40;0.40;;;;;;;12.05;100.00;96953.81;29395;224;63005;-59
2023/05/06 01:47:09;;;;;;;0.40;0.40;;;;;;;12.07;100.00;96950.78;29394;242;64013;-59
2023/05/06 01:47:41;;;;;;;0.40;0.40;;;;;;;12.08;100.00;96952.41;29395;243;63005;-60
2023/05/06 01:48:13;;;;;;;0.40;0.40;;;;;;;12.08;100.00;96952.41;29395;267;63009;-59
2023/05/06 01:48:54;;;;;;;0.50;0.50;;;;;;;12.10;100.00;96949.38;29395;267;63004;-59
2023/05/06 01:49:26;;;;;;;0.50;0.50;;;;;;;12.10;100.00;96949.38;29417;227;63009;-59
2023/05/06 01:49:58;;;;;;;0.40;0.40;;;;;;;12.10;100.00;96952.09;29395;233;63004;-59
2023/05/06 01:50:30;;;;;;;0.50;0.50;;;;;;;12.11;100.00;96948.28;29395;244;63009;-58
2023/05/06 01:51:02;;;;;;;0.40;0.40;;;;;;;12.11;100.00;96951.00;29395;253;63004;-59
2023/05/06 01:51:33;;;;;;;0.40;0.40;;;;;;;12.11;100.00;96954.50;29395;265;63008;-59
2023/05/06 01:52:05;;;;;;;0.50;0.50;;;;;;;12.12;100.00;96958.03;29395;222;63005;-60
2023/05/06 01:52:36;;;;;;;0.50;0.50;;;;;;;12.12;100.00;96952.59;29394;232;64014;-60
2023/05/06 01:53:07;;;;;;;0.40;0.40;;;;;;;12.11;100.00;96956.44;29395;200;63005;-59
2023/05/06 01:53:38;;;;;;;0.40;0.40;;;;;;;12.10;100.00;96949.38;29395;247;63009;-58
2023/05/06 01:55:19;;;;;;;0.47;0.47;;;;;;;12.10;100.00;96949.38;88174;201;64004;-55
2023/05/06 01:55:50;;;;;;;0.40;0.40;;;;;;;12.08;100.00;96953.19;29394;223;64009;-57
2023/05/06 01:56:21;;;;;;;0.40;0.40;;;;;;;12.08;100.00;96953.19;29395;196;63004;-59
2023/05/06 01:56:53;;;;;;;0.40;0.40;;;;;;;12.08;100.00;96953.19;29395;234;63014;-59
2023/05/06 01:57:24;;;;;;;0.40;0.40;;;;;;;12.10;100.00;96954.81;29394;218;64009;-59
2023/05/06 01:57:56;;;;;;;0.40;0.40;;;;;;;12.11;100.00;96951.00;29395;234;63009;-59
2023/05/06 01:58:27;;;;;;;0.43;0.43;;;;;;;12.11;100.00;96949.06;29395;239;63004;-56
2023/05/06 01:59:01;;;;;;;0.40;0.40;;;;;;;12.10;100.00;96955.62;29395;222;63009;-58
2023/05/06 01:59:33;;;;;;;0.43;0.43;;;;;;;12.11;100.00;96956.44;29395;232;63005;-56
2023/05/06 02:00:07;;;;;;;0.40;0.40;;;;;;;12.10;100.00;96961.06;29395;217;63016;-59
2023/05/06 02:00:38;;;;;;;0.40;0.40;;;;;;;12.08;100.00;96953.19;29395;197;63014;-59
2023/05/06 02:01:09;;;;;;;0.40;0.40;;;;;;;12.07;100.00;96954.31;29395;240;63009;-59
2023/05/06 02:01:41;;;;;;;0.50;0.50;;;;;;;12.08;100.00;96955.91;29394;207;64005;-55
2023/05/06 02:02:16;;;;;;;0.40;0.40;;;;;;;12.07;100.00;96948.88;29395;208;63009;-57
2023/05/06 02:02:49;;;;;;;0.50;0.50;;;;;;;12.08;100.00;96953.19;29394;218;64009;-58
2023/05/06 02:03:20;;;;;;;0.40;0.40;;;;;;;12.08;100.00;96953.19;29395;212;63009;-59
2023/05/06 02:03:53;;;;;;;0.45;0.45;;;;;;;12.08;100.00;96947.75;29395;202;63004;-60
2023/05/06 02:04:25;;;;;;;0.40;0.40;;;;;;;12.06;100.00;96951.87;29394;207;64013;-59
2023/05/06 02:04:56;;;;;;;0.40;0.40;;;;;;;12.04;100.00;96949.47;29395;207;63004;-58
2023/05/06 02:05:31;;;;;;;0.50;0.50;;;;;;;12.01;100.00;96952.78;29395;202;63009;-56
2023/05/06 02:06:03;;;;;;;0.50;0.50;;;;;;;12.04;100.00;96952.19;29395;225;63004;-59
2023/05/06 02:06:34;;;;;;;0.50;0.50;;;;;;;12.04;100.00;96952.19;29395;236;63009;-59
2023/05/06 02:07:06;;;;;;;0.43;0.43;;;;;;;12.04;100.00;96952.19;29395;232;63005;-60
2023/05/06 02:07:37;;;;;;;0.43;0.43;;;;;;;12.05;100.00;96955.72;29395;206;63009;-60
2023/05/06 02:08:08;;;;;;;0.40;0.40;;;;;;;12.05;100.00;96953.81;29395;272;63005;-60
2023/05/06 02:08:42;;;;;;;0.40;0.40;;;;;;;11.99;100.00;96949.56;29395;272;63009;-59
2023/05/06 02:10:35;;;;;;;0.43;0.43;;;;;;;12.01;100.00;96952.78;88151;208;64005;-55
2023/05/06 02:11:06;;;;;;;0.40;0.40;;;;;;;12.01;100.00;96950.06;29394;217;64009;-59
2023/05/06 02:11:37;;;;;;;0.50;0.50;;;;;;;12.00;100.00;96951.16;29394;231;64009;-59
2023/05/06 02:12:08;;;;;;;0.40;0.40;;;;;;;11.98;100.00;96947.94;29395;220;63009;-59
2023/05/06 02:12:40;;;;;;;0.40;0.40;;;;;;;11.98;100.00;96947.94;29395;224;63004;-58
2023/05/06 02:13:11;;;;;;;1.17;1.17;;;;;;;11.95;100.00;96943.09;29395;250;63008;-59
2023/05/06 02:13:45;;;;;;;0.43;0.43;;;;;;;12.00;100.00;96950.38;29395;250;63004;-59
2023/05/06 02:14:17;;;;;;;0.40;0.40;;;;;;;11.99;100.00;96948.75;29395;227;63009;-59
2023/05/06 02:14:48;;;;;;;0.40;0.40;;;;;;;11.99;100.00;96946.84;29395;222;63001;-60
2023/05/06 02:15:23;;;;;;;0.50;0.50;;;;;;;11.97;100.00;96946.34;29394;211;64014;-60
2023/05/06 02:15:54;;;;;;;0.40;0.40;;;;;;;11.96;100.00;96944.72;29395;202;63005;-59
2023/05/06 02:16:29;;;;;;;0.40;0.40;;;;;;;11.94;100.00;96946.94;29395;214;63009;-59
2023/05/06 02:17:04;;;;;;;0.40;0.40;;;;;;;11.92;100.00;96942.88;29394;265;64009;-60
2023/05/06 02:17:37;;;;;;;0.40;0.40;;;;;;;11.91;100.00;96942.09;29394;266;64002;-58
2023/05/06 02:18:08;;;;;;;0.50;0.50;;;;;;;11.90;100.00;96943.19;29395;202;63017;-55
2023/05/06 02:18:40;;;;;;;0.40;0.40;;;;;;;11.83;100.00;96929.19;29395;228;63009;-59
2023/05/06 02:19:11;;;;;;;0.40;0.40;;;;;;;11.89;100.00;96944.28;29394;232;64009;-58
2023/05/06 02:19:43;;;;;;;0.40;0.40;;;;;;;11.90;100.00;96940.47;29395;226;63009;-59
2023/05/06 02:20:14;;;;;;;0.40;0.40;;;;;;;11.90;100.00;96945.09;29395;226;63004;-58
2023/05/06 02:20:45;;;;;;;0.40;0.40;;;;;;;11.90;100.00;96951.34;29395;264;63008;-55
2023/05/06 02:21:16;;;;;;;0.40;0.40;;;;;;;11.90;100.00;96945.09;29395;217;63004;-60
2023/05/06 02:21:48;;;;;;;0.40;0.40;;;;;;;11.90;100.00;96951.34;29395;260;63009;-58
2023/05/06 02:22:22;;;;;;;0.40;0.40;;;;;;;11.91;100.00;96950.25;29395;270;63005;-59
2023/05/06 02:22:55;;;;;;;0.40;0.40;;;;;;;11.89;100.00;96952.47;29395;246;63009;-60
2023/05/06 02:23:26;;;;;;;0.40;0.40;;;;;;;11.89;100.00;96947.00;29395;247;63015;-60
2023/05/06 02:23:57;;;;;;;0.40;0.40;;;;;;;11.89;100.00;96952.47;29395;252;63009;-55
2023/05/06 02:25:37;;;;;;;0.47;0.47;;;;;;;11.90;100.00;96951.34;88174;197;64004;-59
2023/05/06 02:26:09;;;;;;;0.73;0.73;;;;;;;11.90;100.00;96947.81;29394;202;64009;-56
2023/05/06 02:26:40;;;;;;;0.40;0.40;;;;;;;11.89;100.00;96949.72;29395;198;63004;-56
2023/05/06 02:27:11;;;;;;;0.50;0.50;;;;;;;11.89;100.00;96955.16;29395;212;63009;-60
2023/05/06 02:27:43;;;;;;;0.40;0.40;;;;;;;11.88;100.00;96950.03;29395;250;63004;-60
2023/05/06 02:28:24;;;;;;;0.40;0.40;;;;;;;11.87;100.00;96951.94;29395;278;63009;-57
2023/05/06 02:28:58;;;;;;;0.40;0.40;;;;;;;11.85;100.00;96946.00;29395;251;63004;-60
2023/05/06 02:29:29;;;;;;;0.40;0.40;;;;;;;11.84;100.00;96949.00;29394;214;64014;-59
2023/05/06 02:30:01;;;;;;;0.40;0.40;;;;;;;11.85;100.00;96954.16;29395;211;63005;-60
2023/05/06 02:30:33;;;;;;;0.40;0.40;;;;;;;11.85;100.00;96948.72;29395;254;63009;-57
2023/05/06 02:31:08;;;;;;;0.40;0.40;;;;;;;11.84;100.00;96952.53;29395;242;63017;-55
2023/05/06 02:31:39;;;;;;;0.40;0.40;;;;;;;11.83;100.00;96948.22;29395;270;63016;-60
2023/05/06 02:32:10;;;;;;;0.40;0.40;;;;;;;11.84;100.00;96952.53;29395;228;63005;-59
2023/05/06 02:32:42;;;;;;;0.40;0.40;;;;;;;11.84;100.00;96941.66;29394;254;64013;-59
2023/05/06 02:33:13;;;;;;;0.40;0.40;;;;;;;11.85;100.00;96945.19;29395;238;63005;-59
2023/05/06 02:33:52;;;;;;;0.40;0.40;;;;;;;11.86;100.00;96944.09;29395;245;63011;-55
2023/05/06 02:34:23;;;;;;;0.40;0.40;;;;;;;11.87;100.00;96951.94;29395;213;63004;-60
2023/05/06 02:34:55;;;;;;;0.40;0.40;;;;;;;11.88;100.00;96941.88;29395;272;63021;-59
2023/05/06 02:35:27;;;;;;;0.45;0.45;;;;;;;11.89;100.00;96938.84;29395;271;63004;-59
2023/05/06 02:35:58;;;;;;;0.40;0.40;;;;;;;11.90;100.00;96942.38;29395;204;63017;-61
2023/05/06 02:36:29;;;;;;;0.40;0.40;;;;;;;11.89;100.00;96947.00;29395;215;63004;-58
2023/05/06 02:37:00;;;;;;;0.40;0.40;;;;;;;11.91;100.00;96942.09;29395;247;63009;-56
2023/05/06 02:37:31;;;;;;;0.40;0.40;;;;;;;11.91;100.00;96947.53;29395;221;63008;-56
2023/05/06 02:38:05;;;;;;;0.40;0.40;;;;;;;11.91;100.00;96944.81;29394;205;64014;-59
2023/05/06 02:38:36;;;;;;;0.40;0.40;;;;;;;11.90;100.00;96940.47;29395;243;63005;-60
2023/05/06 02:39:11;;;;;;;0.40;0.40;;;;;;;11.91;100.00;96947.53;29395;244;63009;-56
2023/05/06 02:40:52;;;;;;;0.45;0.45;;;;;;;11.91;100.00;96946.72;88178;197;64005;-60
2023/05/06 02:41:24;;;;;;;0.40;0.40;;;;;;;11.91;100.00;96947.53;29394;202;64009;-60
2023/05/06 02:41:55;;;;;;;0.40;0.40;;;;;;;11.92;100.00;96945.63;29395;206;63004;-55
2023/05/06 02:42:27;;;;;;;0.50;0.50;;;;;;;11.91;100.00;96942.09;29395;244;63009;-55
2023/05/06 02:42:58;;;;;;;0.43;0.43;;;;;;;11.89;100.00;96943.50;29395;211;63004;-60
2023/05/06 02:43:30;;;;;;;0.40;0.40;;;;;;;11.89;100.00;96944.28;29395;241;63008;-59
2023/05/06 02:44:02;;;;;;;0.40;0.40;;;;;;;11.89;100.00;96943.50;29395;202;63004;-60
2023/05/06 02:44:33;;;;;;;0.40;0.40;;;;;;;11.88;100.00;96941.88;29395;245;63009;-59
2023/05/06 02:45:05;;;;;;;0.40;0.40;;;;;;;11.88;100.00;96941.88;29394;204;64009;-60
2023/05/06 02:45:37;;;;;;;0.40;0.40;;;;;;;11.89;100.00;96944.28;29395;237;63009;-58
2023/05/06 02:46:08;;;;;;;0.50;0.50;;;;;;;11.89;100.00;96933.41;29395;270;63010;-55
2023/05/06 02:46:39;;;;;;;0.40;0.40;;;;;;;11.90;100.00;96939.66;29395;241;63009;-60
2023/05/06 02:47:11;;;;;;;0.45;0.45;;;;;;;11.90;100.00;96931.50;29394;241;64005;-55
2023/05/06 02:47:43;;;;;;;0.40;0.40;;;;;;;11.88;100.00;96933.72;29395;265;63009;-59
2023/05/06 02:48:15;;;;;;;1.00;0.95;;;;;;;11.85;100.00;96932.41;29395;283;63004;-59
2023/05/06 02:48:46;;;;;;;0.40;0.40;;;;;;;11.83;100.00;96926.47;29395;227;63009;-55